Terminal Aerodrome Forecast
Issued by NWS Memphis, TN

Home | Current Version | Previous Version | Text Only | Print | Product List | Glossary On
Versions: 1 2 3 4 5 6 7 8 9 10 11 12
000
FTUS44 KMEG 030520
TAFJBR
TAF
KJBR 030520Z 0306/0406 00000KT 6SM BR SKC
      TEMPO 0308/0312 4SM BR
     FM031400 VRB03KT P6SM FEW040
     FM040100 VRB02KT P6SM SCT250=

USA.gov is the U.S. government's official web portal to all federal, state and local government web resources and services.